sensor_id;sensor_type;location;lat;lon;timestamp;P1;durP1;ratioP1;P2;durP2;ratioP2
27113;SDS011;14648;49.730;8.614;2023-08-31T00:00:43;3.10;;;2.60;;
27113;SDS011;14648;49.730;8.614;2023-08-31T00:03:09;4.03;;;1.20;;
27113;SDS011;14648;49.730;8.614;2023-08-31T00:05:40;1.20;;;0.93;;
27113;SDS011;14648;49.730;8.614;2023-08-31T00:08:06;1.60;;;1.07;;
27113;SDS011;14648;49.730;8.614;2023-08-31T00:10:33;1.00;;;0.90;;
27113;SDS011;14648;49.730;8.614;2023-08-31T00:13:00;2.53;;;1.03;;
27113;SDS011;14648;49.730;8.614;2023-08-31T00:15:27;1.33;;;0.90;;
27113;SDS011;14648;49.730;8.614;2023-08-31T00:18:00;1.90;;;1.30;;
27113;SDS011;14648;49.730;8.614;2023-08-31T00:20:30;1.43;;;1.30;;
27113;SDS011;14648;49.730;8.614;2023-08-31T00:22:56;1.70;;;1.60;;
27113;SDS011;14648;49.730;8.614;2023-08-31T00:25:23;1.37;;;1.27;;
27113;SDS011;14648;49.730;8.614;2023-08-31T00:27:48;3.33;;;0.90;;
27113;SDS011;14648;49.730;8.614;2023-08-31T00:30:14;1.70;;;1.47;;
27113;SDS011;14648;49.730;8.614;2023-08-31T00:32:40;4.63;;;1.50;;
27113;SDS011;14648;49.730;8.614;2023-08-31T00:35:08;1.50;;;1.40;;
27113;SDS011;14648;49.730;8.614;2023-08-31T00:37:34;1.60;;;1.33;;
27113;SDS011;14648;49.730;8.614;2023-08-31T00:40:00;1.33;;;1.23;;
27113;SDS011;14648;49.730;8.614;2023-08-31T00:42:26;2.03;;;1.93;;
27113;SDS011;14648;49.730;8.614;2023-08-31T00:44:54;1.50;;;1.40;;
27113;SDS011;14648;49.730;8.614;2023-08-31T00:47:20;4.20;;;1.70;;
27113;SDS011;14648;49.730;8.614;2023-08-31T00:49:46;1.90;;;1.70;;
27113;SDS011;14648;49.730;8.614;2023-08-31T00:52:13;1.40;;;1.10;;
27113;SDS011;14648;49.730;8.614;2023-08-31T00:54:38;1.33;;;1.23;;
27113;SDS011;14648;49.730;8.614;2023-08-31T00:57:07;1.53;;;1.43;;
27113;SDS011;14648;49.730;8.614;2023-08-31T00:59:33;2.37;;;1.50;;
27113;SDS011;14648;49.730;8.614;2023-08-31T01:02:03;1.60;;;1.50;;
27113;SDS011;14648;49.730;8.614;2023-08-31T01:04:41;3.43;;;1.60;;
27113;SDS011;14648;49.730;8.614;2023-08-31T01:07:39;2.87;;;1.60;;
27113;SDS011;14648;49.730;8.614;2023-08-31T01:10:29;0.90;;;0.90;;
27113;SDS011;14648;49.730;8.614;2023-08-31T01:13:19;5.80;;;2.20;;
27113;SDS011;14648;49.730;8.614;2023-08-31T01:15:56;4.20;;;1.30;;
27113;SDS011;14648;49.730;8.614;2023-08-31T01:18:26;2.03;;;1.27;;
27113;SDS011;14648;49.730;8.614;2023-08-31T01:23:53;2.23;;;1.10;;
27113;SDS011;14648;49.730;8.614;2023-08-31T01:26:21;1.83;;;1.30;;
27113;SDS011;14648;49.730;8.614;2023-08-31T01:28:48;1.73;;;1.23;;
27113;SDS011;14648;49.730;8.614;2023-08-31T01:31:14;2.93;;;1.40;;
27113;SDS011;14648;49.730;8.614;2023-08-31T01:33:41;3.63;;;1.60;;
27113;SDS011;14648;49.730;8.614;2023-08-31T01:36:08;1.90;;;1.23;;
27113;SDS011;14648;49.730;8.614;2023-08-31T01:38:49;1.87;;;1.50;;
27113;SDS011;14648;49.730;8.614;2023-08-31T01:41:23;2.80;;;1.70;;
27113;SDS011;14648;49.730;8.614;2023-08-31T01:43:51;2.20;;;1.70;;
27113;SDS011;14648;49.730;8.614;2023-08-31T01:46:17;2.90;;;1.70;;
27113;SDS011;14648;49.730;8.614;2023-08-31T01:48:44;2.50;;;2.00;;
27113;SDS011;14648;49.730;8.614;2023-08-31T01:51:10;5.43;;;1.80;;
27113;SDS011;14648;49.730;8.614;2023-08-31T01:53:36;2.23;;;1.93;;
27113;SDS011;14648;49.730;8.614;2023-08-31T01:56:02;1.63;;;1.50;;
27113;SDS011;14648;49.730;8.614;2023-08-31T01:58:29;1.97;;;1.70;;
27113;SDS011;14648;49.730;8.614;2023-08-31T02:00:55;2.57;;;2.10;;
27113;SDS011;14648;49.730;8.614;2023-08-31T02:03:21;4.00;;;2.50;;
27113;SDS011;14648;49.730;8.614;2023-08-31T02:05:47;1.90;;;1.67;;
27113;SDS011;14648;49.730;8.614;2023-08-31T02:08:13;2.37;;;2.17;;
27113;SDS011;14648;49.730;8.614;2023-08-31T02:10:42;3.23;;;2.30;;
27113;SDS011;14648;49.730;8.614;2023-08-31T02:13:09;4.10;;;2.63;;
27113;SDS011;14648;49.730;8.614;2023-08-31T02:15:37;4.00;;;1.27;;
27113;SDS011;14648;49.730;8.614;2023-08-31T02:18:03;3.77;;;2.00;;
27113;SDS011;14648;49.730;8.614;2023-08-31T02:20:29;2.30;;;1.93;;
27113;SDS011;14648;49.730;8.614;2023-08-31T02:22:55;9.27;;;2.10;;
27113;SDS011;14648;49.730;8.614;2023-08-31T02:25:21;1.73;;;1.63;;
27113;SDS011;14648;49.730;8.614;2023-08-31T02:27:47;6.43;;;2.40;;
27113;SDS011;14648;49.730;8.614;2023-08-31T02:30:12;3.80;;;1.90;;
27113;SDS011;14648;49.730;8.614;2023-08-31T02:32:38;3.60;;;2.10;;
27113;SDS011;14648;49.730;8.614;2023-08-31T02:35:04;2.90;;;2.20;;
27113;SDS011;14648;49.730;8.614;2023-08-31T02:37:30;4.50;;;2.13;;
27113;SDS011;14648;49.730;8.614;2023-08-31T02:39:55;2.43;;;1.97;;
27113;SDS011;14648;49.730;8.614;2023-08-31T02:42:21;2.40;;;2.20;;
27113;SDS011;14648;49.730;8.614;2023-08-31T02:44:47;2.00;;;1.70;;
27113;SDS011;14648;49.730;8.614;2023-08-31T02:47:17;3.17;;;2.20;;
27113;SDS011;14648;49.730;8.614;2023-08-31T02:49:42;1.63;;;1.40;;
27113;SDS011;14648;49.730;8.614;2023-08-31T02:52:08;1.40;;;1.30;;
27113;SDS011;14648;49.730;8.614;2023-08-31T02:54:33;3.40;;;2.10;;
27113;SDS011;14648;49.730;8.614;2023-08-31T02:56:59;8.50;;;2.37;;
27113;SDS011;14648;49.730;8.614;2023-08-31T02:59:25;1.80;;;1.70;;
27113;SDS011;14648;49.730;8.614;2023-08-31T03:01:51;8.63;;;2.27;;
27113;SDS011;14648;49.730;8.614;2023-08-31T03:04:16;3.47;;;1.77;;
27113;SDS011;14648;49.730;8.614;2023-08-31T03:06:42;2.70;;;2.13;;
27113;SDS011;14648;49.730;8.614;2023-08-31T03:09:08;1.80;;;1.20;;
27113;SDS011;14648;49.730;8.614;2023-08-31T03:11:34;1.93;;;1.57;;
27113;SDS011;14648;49.730;8.614;2023-08-31T03:14:00;3.57;;;1.60;;
27113;SDS011;14648;49.730;8.614;2023-08-31T03:16:26;2.10;;;1.87;;
27113;SDS011;14648;49.730;8.614;2023-08-31T03:18:51;2.90;;;2.10;;
27113;SDS011;14648;49.730;8.614;2023-08-31T03:21:17;4.50;;;1.37;;
27113;SDS011;14648;49.730;8.614;2023-08-31T03:23:43;2.60;;;2.13;;
27113;SDS011;14648;49.730;8.614;2023-08-31T03:26:08;2.90;;;1.30;;
27113;SDS011;14648;49.730;8.614;2023-08-31T03:28:34;2.30;;;1.87;;
27113;SDS011;14648;49.730;8.614;2023-08-31T03:31:00;4.63;;;1.83;;
27113;SDS011;14648;49.730;8.614;2023-08-31T03:33:26;2.20;;;1.97;;
27113;SDS011;14648;49.730;8.614;2023-08-31T03:35:53;5.30;;;2.70;;
27113;SDS011;14648;49.730;8.614;2023-08-31T03:38:24;1.93;;;1.60;;
27113;SDS011;14648;49.730;8.614;2023-08-31T03:40:54;4.30;;;2.00;;
27113;SDS011;14648;49.730;8.614;2023-08-31T03:43:20;2.60;;;1.97;;
27113;SDS011;14648;49.730;8.614;2023-08-31T03:45:46;3.53;;;2.40;;
27113;SDS011;14648;49.730;8.614;2023-08-31T03:48:11;2.80;;;2.27;;
27113;SDS011;14648;49.730;8.614;2023-08-31T03:50:37;4.20;;;2.50;;
27113;SDS011;14648;49.730;8.614;2023-08-31T03:53:03;4.77;;;2.50;;
27113;SDS011;14648;49.730;8.614;2023-08-31T03:55:28;3.40;;;2.30;;
27113;SDS011;14648;49.730;8.614;2023-08-31T03:57:56;3.20;;;2.90;;
27113;SDS011;14648;49.730;8.614;2023-08-31T04:00:25;2.73;;;2.47;;
27113;SDS011;14648;49.730;8.614;2023-08-31T04:02:50;2.80;;;2.00;;
27113;SDS011;14648;49.730;8.614;2023-08-31T04:05:16;3.13;;;2.00;;
27113;SDS011;14648;49.730;8.614;2023-08-31T04:07:41;2.17;;;2.03;;
27113;SDS011;14648;49.730;8.614;2023-08-31T04:10:07;2.53;;;1.77;;
27113;SDS011;14648;49.730;8.614;2023-08-31T04:12:33;2.60;;;1.87;;
27113;SDS011;14648;49.730;8.614;2023-08-31T04:14:59;4.30;;;2.67;;
27113;SDS011;14648;49.730;8.614;2023-08-31T04:17:25;2.60;;;2.13;;
27113;SDS011;14648;49.730;8.614;2023-08-31T04:19:51;2.00;;;1.90;;
27113;SDS011;14648;49.730;8.614;2023-08-31T04:22:17;2.20;;;1.90;;
27113;SDS011;14648;49.730;8.614;2023-08-31T04:24:43;4.73;;;2.27;;
27113;SDS011;14648;49.730;8.614;2023-08-31T04:27:08;2.53;;;2.00;;
27113;SDS011;14648;49.730;8.614;2023-08-31T04:29:34;3.13;;;1.93;;
27113;SDS011;14648;49.730;8.614;2023-08-31T04:32:00;13.03;;;2.93;;
27113;SDS011;14648;49.730;8.614;2023-08-31T04:34:26;2.80;;;2.40;;
27113;SDS011;14648;49.730;8.614;2023-08-31T04:36:52;4.87;;;2.73;;
27113;SDS011;14648;49.730;8.614;2023-08-31T04:39:17;4.37;;;2.30;;
27113;SDS011;14648;49.730;8.614;2023-08-31T04:41:43;5.10;;;3.53;;
27113;SDS011;14648;49.730;8.614;2023-08-31T04:44:09;3.07;;;2.37;;
27113;SDS011;14648;49.730;8.614;2023-08-31T04:46:36;4.23;;;2.10;;
27113;SDS011;14648;49.730;8.614;2023-08-31T04:49:03;5.23;;;3.00;;
27113;SDS011;14648;49.730;8.614;2023-08-31T04:51:33;2.33;;;2.00;;
27113;SDS011;14648;49.730;8.614;2023-08-31T04:54:00;2.67;;;2.47;;
27113;SDS011;14648;49.730;8.614;2023-08-31T04:56:31;2.37;;;2.17;;
27113;SDS011;14648;49.730;8.614;2023-08-31T04:59:00;3.10;;;2.10;;
27113;SDS011;14648;49.730;8.614;2023-08-31T05:01:27;7.13;;;1.60;;
27113;SDS011;14648;49.730;8.614;2023-08-31T05:03:53;3.20;;;1.97;;
27113;SDS011;14648;49.730;8.614;2023-08-31T05:06:19;2.30;;;1.73;;
27113;SDS011;14648;49.730;8.614;2023-08-31T05:08:46;3.07;;;2.07;;
27113;SDS011;14648;49.730;8.614;2023-08-31T05:11:13;2.10;;;2.00;;
27113;SDS011;14648;49.730;8.614;2023-08-31T05:13:39;5.70;;;2.17;;
27113;SDS011;14648;49.730;8.614;2023-08-31T05:16:07;4.53;;;1.70;;
27113;SDS011;14648;49.730;8.614;2023-08-31T05:18:33;2.60;;;1.47;;
27113;SDS011;14648;49.730;8.614;2023-08-31T05:20:59;1.83;;;1.23;;
27113;SDS011;14648;49.730;8.614;2023-08-31T05:23:25;5.23;;;2.03;;
27113;SDS011;14648;49.730;8.614;2023-08-31T05:25:50;1.97;;;1.87;;
27113;SDS011;14648;49.730;8.614;2023-08-31T05:28:16;2.93;;;1.80;;
27113;SDS011;14648;49.730;8.614;2023-08-31T05:30:49;9.37;;;2.30;;
27113;SDS011;14648;49.730;8.614;2023-08-31T05:33:18;6.97;;;2.53;;
27113;SDS011;14648;49.730;8.614;2023-08-31T05:35:45;2.47;;;2.27;;
27113;SDS011;14648;49.730;8.614;2023-08-31T05:38:14;2.93;;;2.17;;
27113;SDS011;14648;49.730;8.614;2023-08-31T05:40:40;2.13;;;1.73;;
27113;SDS011;14648;49.730;8.614;2023-08-31T05:43:10;1.73;;;1.23;;
27113;SDS011;14648;49.730;8.614;2023-08-31T05:45:37;2.40;;;2.10;;
27113;SDS011;14648;49.730;8.614;2023-08-31T05:48:03;2.93;;;1.83;;
27113;SDS011;14648;49.730;8.614;2023-08-31T05:50:29;6.63;;;2.20;;
27113;SDS011;14648;49.730;8.614;2023-08-31T05:52:55;1.87;;;1.63;;
27113;SDS011;14648;49.730;8.614;2023-08-31T05:55:21;3.03;;;1.90;;
27113;SDS011;14648;49.730;8.614;2023-08-31T05:57:47;5.47;;;2.10;;
27113;SDS011;14648;49.730;8.614;2023-08-31T06:00:13;4.10;;;2.20;;
27113;SDS011;14648;49.730;8.614;2023-08-31T06:02:39;2.50;;;1.83;;
27113;SDS011;14648;49.730;8.614;2023-08-31T06:05:05;6.87;;;2.43;;
27113;SDS011;14648;49.730;8.614;2023-08-31T06:07:31;2.03;;;1.30;;
27113;SDS011;14648;49.730;8.614;2023-08-31T06:09:57;3.20;;;1.80;;
27113;SDS011;14648;49.730;8.614;2023-08-31T06:12:23;1.77;;;1.57;;
27113;SDS011;14648;49.730;8.614;2023-08-31T06:14:48;3.90;;;1.40;;
27113;SDS011;14648;49.730;8.614;2023-08-31T06:17:14;1.60;;;1.17;;
27113;SDS011;14648;49.730;8.614;2023-08-31T06:19:41;1.60;;;1.50;;
27113;SDS011;14648;49.730;8.614;2023-08-31T06:22:07;2.20;;;2.00;;
27113;SDS011;14648;49.730;8.614;2023-08-31T06:24:33;1.60;;;1.50;;
27113;SDS011;14648;49.730;8.614;2023-08-31T06:26:59;2.17;;;1.83;;
27113;SDS011;14648;49.730;8.614;2023-08-31T06:29:25;3.10;;;1.60;;
27113;SDS011;14648;49.730;8.614;2023-08-31T06:31:51;2.00;;;1.50;;
27113;SDS011;14648;49.730;8.614;2023-08-31T06:34:17;6.17;;;1.60;;
27113;SDS011;14648;49.730;8.614;2023-08-31T06:36:43;2.30;;;1.53;;
27113;SDS011;14648;49.730;8.614;2023-08-31T06:39:08;3.40;;;1.80;;
27113;SDS011;14648;49.730;8.614;2023-08-31T06:41:34;2.73;;;1.30;;
27113;SDS011;14648;49.730;8.614;2023-08-31T06:44:01;5.70;;;1.63;;
27113;SDS011;14648;49.730;8.614;2023-08-31T06:46:27;2.87;;;2.00;;
27113;SDS011;14648;49.730;8.614;2023-08-31T06:48:53;3.00;;;1.80;;
27113;SDS011;14648;49.730;8.614;2023-08-31T06:51:19;2.40;;;1.50;;
27113;SDS011;14648;49.730;8.614;2023-08-31T06:53:45;8.60;;;2.17;;
27113;SDS011;14648;49.730;8.614;2023-08-31T06:56:11;3.17;;;2.30;;
27113;SDS011;14648;49.730;8.614;2023-08-31T06:58:37;2.10;;;1.80;;
27113;SDS011;14648;49.730;8.614;2023-08-31T07:01:05;3.50;;;1.50;;
27113;SDS011;14648;49.730;8.614;2023-08-31T07:03:31;4.27;;;1.77;;
27113;SDS011;14648;49.730;8.614;2023-08-31T07:05:57;1.87;;;1.57;;
27113;SDS011;14648;49.730;8.614;2023-08-31T07:08:22;2.60;;;1.40;;
27113;SDS011;14648;49.730;8.614;2023-08-31T07:10:51;1.43;;;1.30;;
27113;SDS011;14648;49.730;8.614;2023-08-31T07:13:17;4.70;;;1.80;;
27113;SDS011;14648;49.730;8.614;2023-08-31T07:15:42;2.30;;;1.57;;
27113;SDS011;14648;49.730;8.614;2023-08-31T07:18:08;5.43;;;1.50;;
27113;SDS011;14648;49.730;8.614;2023-08-31T07:20:34;3.63;;;1.27;;
27113;SDS011;14648;49.730;8.614;2023-08-31T07:23:00;2.03;;;1.77;;
27113;SDS011;14648;49.730;8.614;2023-08-31T07:25:26;1.70;;;1.47;;
27113;SDS011;14648;49.730;8.614;2023-08-31T07:27:52;2.47;;;1.80;;
27113;SDS011;14648;49.730;8.614;2023-08-31T07:30:18;1.70;;;1.50;;
27113;SDS011;14648;49.730;8.614;2023-08-31T07:32:43;2.27;;;1.50;;
27113;SDS011;14648;49.730;8.614;2023-08-31T07:35:09;3.70;;;1.77;;
27113;SDS011;14648;49.730;8.614;2023-08-31T07:37:37;1.93;;;1.13;;
27113;SDS011;14648;49.730;8.614;2023-08-31T07:40:03;2.10;;;1.80;;
27113;SDS011;14648;49.730;8.614;2023-08-31T07:42:35;3.70;;;1.57;;
27113;SDS011;14648;49.730;8.614;2023-08-31T07:45:00;2.13;;;1.60;;
27113;SDS011;14648;49.730;8.614;2023-08-31T07:47:26;2.87;;;1.77;;
27113;SDS011;14648;49.730;8.614;2023-08-31T07:49:52;2.90;;;2.23;;
27113;SDS011;14648;49.730;8.614;2023-08-31T07:52:17;2.80;;;1.77;;
27113;SDS011;14648;49.730;8.614;2023-08-31T07:54:44;3.17;;;2.03;;
27113;SDS011;14648;49.730;8.614;2023-08-31T07:57:10;3.93;;;2.40;;
27113;SDS011;14648;49.730;8.614;2023-08-31T07:59:36;2.33;;;1.97;;
27113;SDS011;14648;49.730;8.614;2023-08-31T08:02:04;1.30;;;1.20;;
27113;SDS011;14648;49.730;8.614;2023-08-31T08:04:30;2.20;;;1.37;;
27113;SDS011;14648;49.730;8.614;2023-08-31T08:06:56;1.00;;;0.80;;
27113;SDS011;14648;49.730;8.614;2023-08-31T08:09:22;2.83;;;1.70;;
27113;SDS011;14648;49.730;8.614;2023-08-31T08:11:47;2.40;;;1.50;;
27113;SDS011;14648;49.730;8.614;2023-08-31T08:14:13;2.40;;;1.27;;
27113;SDS011;14648;49.730;8.614;2023-08-31T08:16:40;2.73;;;1.43;;
27113;SDS011;14648;49.730;8.614;2023-08-31T08:19:07;1.37;;;1.27;;
27113;SDS011;14648;49.730;8.614;2023-08-31T08:21:33;1.67;;;1.57;;
27113;SDS011;14648;49.730;8.614;2023-08-31T08:23:59;3.53;;;1.97;;
27113;SDS011;14648;49.730;8.614;2023-08-31T08:26:25;1.10;;;1.00;;
27113;SDS011;14648;49.730;8.614;2023-08-31T08:28:51;2.13;;;1.63;;
27113;SDS011;14648;49.730;8.614;2023-08-31T08:31:16;3.40;;;1.23;;
27113;SDS011;14648;49.730;8.614;2023-08-31T08:33:42;3.70;;;2.27;;
27113;SDS011;14648;49.730;8.614;2023-08-31T08:36:08;1.00;;;0.90;;
27113;SDS011;14648;49.730;8.614;2023-08-31T08:38:33;1.43;;;1.27;;
27113;SDS011;14648;49.730;8.614;2023-08-31T08:41:03;2.20;;;1.10;;
27113;SDS011;14648;49.730;8.614;2023-08-31T08:43:31;2.30;;;0.80;;
27113;SDS011;14648;49.730;8.614;2023-08-31T08:46:01;3.10;;;1.10;;
27113;SDS011;14648;49.730;8.614;2023-08-31T08:48:31;1.20;;;1.10;;
27113;SDS011;14648;49.730;8.614;2023-08-31T08:51:00;6.43;;;1.20;;
27113;SDS011;14648;49.730;8.614;2023-08-31T08:53:27;4.60;;;1.20;;
27113;SDS011;14648;49.730;8.614;2023-08-31T08:55:53;0.93;;;0.80;;
27113;SDS011;14648;49.730;8.614;2023-08-31T08:58:19;2.37;;;1.60;;
27113;SDS011;14648;49.730;8.614;2023-08-31T09:00:45;4.10;;;0.80;;
27113;SDS011;14648;49.730;8.614;2023-08-31T09:03:11;5.10;;;1.23;;
27113;SDS011;14648;49.730;8.614;2023-08-31T09:05:37;0.80;;;0.80;;
27113;SDS011;14648;49.730;8.614;2023-08-31T09:08:04;1.30;;;1.00;;
27113;SDS011;14648;49.730;8.614;2023-08-31T09:10:41;9.83;;;1.13;;
27113;SDS011;14648;49.730;8.614;2023-08-31T09:13:19;1.60;;;0.70;;
27113;SDS011;14648;49.730;8.614;2023-08-31T09:15:45;0.80;;;0.63;;
27113;SDS011;14648;49.730;8.614;2023-08-31T09:18:16;0.83;;;0.83;;
27113;SDS011;14648;49.730;8.614;2023-08-31T09:20:53;5.70;;;1.43;;
27113;SDS011;14648;49.730;8.614;2023-08-31T09:23:21;2.47;;;1.00;;
27113;SDS011;14648;49.730;8.614;2023-08-31T09:25:48;2.53;;;0.93;;
27113;SDS011;14648;49.730;8.614;2023-08-31T09:28:25;1.37;;;1.07;;
27113;SDS011;14648;49.730;8.614;2023-08-31T09:30:52;2.80;;;1.10;;
27113;SDS011;14648;49.730;8.614;2023-08-31T09:33:29;2.23;;;1.03;;
27113;SDS011;14648;49.730;8.614;2023-08-31T09:35:56;2.20;;;0.80;;
27113;SDS011;14648;49.730;8.614;2023-08-31T09:38:25;1.10;;;1.00;;
27113;SDS011;14648;49.730;8.614;2023-08-31T09:40:50;1.67;;;0.87;;
27113;SDS011;14648;49.730;8.614;2023-08-31T09:43:20;1.80;;;0.80;;
27113;SDS011;14648;49.730;8.614;2023-08-31T09:45:48;0.93;;;0.70;;
27113;SDS011;14648;49.730;8.614;2023-08-31T09:48:15;0.80;;;0.80;;
27113;SDS011;14648;49.730;8.614;2023-08-31T09:50:43;1.07;;;0.80;;
27113;SDS011;14648;49.730;8.614;2023-08-31T09:53:11;5.30;;;1.03;;
27113;SDS011;14648;49.730;8.614;2023-08-31T09:55:38;1.87;;;0.77;;
27113;SDS011;14648;49.730;8.614;2023-08-31T09:58:05;3.00;;;1.00;;
27113;SDS011;14648;49.730;8.614;2023-08-31T10:00:35;0.73;;;0.70;;
27113;SDS011;14648;49.730;8.614;2023-08-31T10:03:02;1.20;;;0.83;;
27113;SDS011;14648;49.730;8.614;2023-08-31T10:05:30;0.80;;;0.80;;
27113;SDS011;14648;49.730;8.614;2023-08-31T10:07:57;0.70;;;0.70;;
27113;SDS011;14648;49.730;8.614;2023-08-31T10:10:23;0.70;;;0.70;;
27113;SDS011;14648;49.730;8.614;2023-08-31T10:12:49;0.70;;;0.70;;
27113;SDS011;14648;49.730;8.614;2023-08-31T10:15:16;0.90;;;0.70;;
27113;SDS011;14648;49.730;8.614;2023-08-31T10:17:43;0.60;;;0.60;;
27113;SDS011;14648;49.730;8.614;2023-08-31T10:20:11;1.13;;;0.90;;
27113;SDS011;14648;49.730;8.614;2023-08-31T10:22:40;1.27;;;1.00;;
27113;SDS011;14648;49.730;8.614;2023-08-31T10:25:06;0.80;;;0.70;;
27113;SDS011;14648;49.730;8.614;2023-08-31T10:27:36;1.90;;;0.90;;
27113;SDS011;14648;49.730;8.614;2023-08-31T10:30:23;1.07;;;0.73;;
27113;SDS011;14648;49.730;8.614;2023-08-31T10:35:45;2.40;;;1.00;;
27113;SDS011;14648;49.730;8.614;2023-08-31T10:38:16;2.27;;;1.00;;
27113;SDS011;14648;49.730;8.614;2023-08-31T10:46:17;1.63;;;0.87;;
27113;SDS011;14648;49.730;8.614;2023-08-31T10:48:57;0.80;;;0.70;;
27113;SDS011;14648;49.730;8.614;2023-08-31T10:51:25;7.30;;;1.23;;
27113;SDS011;14648;49.730;8.614;2023-08-31T10:54:03;1.07;;;0.80;;
27113;SDS011;14648;49.730;8.614;2023-08-31T10:59:23;0.90;;;0.90;;
27113;SDS011;14648;49.730;8.614;2023-08-31T11:01:55;0.80;;;0.73;;
27113;SDS011;14648;49.730;8.614;2023-08-31T11:04:24;0.73;;;0.73;;
27113;SDS011;14648;49.730;8.614;2023-08-31T11:09:44;2.07;;;0.70;;
27113;SDS011;14648;49.730;8.614;2023-08-31T11:12:11;0.70;;;0.70;;
27113;SDS011;14648;49.730;8.614;2023-08-31T11:14:38;1.07;;;0.90;;
27113;SDS011;14648;49.730;8.614;2023-08-31T11:17:05;1.13;;;1.00;;
27113;SDS011;14648;49.730;8.614;2023-08-31T11:19:32;4.30;;;1.03;;
27113;SDS011;14648;49.730;8.614;2023-08-31T11:22:02;1.37;;;1.27;;
27113;SDS011;14648;49.730;8.614;2023-08-31T11:24:29;1.00;;;0.70;;
27113;SDS011;14648;49.730;8.614;2023-08-31T11:26:56;1.60;;;1.00;;
27113;SDS011;14648;49.730;8.614;2023-08-31T11:29:22;2.60;;;0.87;;
27113;SDS011;14648;49.730;8.614;2023-08-31T11:31:50;5.20;;;1.13;;
27113;SDS011;14648;49.730;8.614;2023-08-31T11:34:16;1.50;;;0.80;;
27113;SDS011;14648;49.730;8.614;2023-08-31T11:36:44;1.47;;;0.80;;
27113;SDS011;14648;49.730;8.614;2023-08-31T11:39:14;2.47;;;0.97;;
27113;SDS011;14648;49.730;8.614;2023-08-31T11:41:42;1.27;;;0.90;;
27113;SDS011;14648;49.730;8.614;2023-08-31T11:44:12;2.10;;;0.90;;
27113;SDS011;14648;49.730;8.614;2023-08-31T11:46:42;0.90;;;0.90;;
27113;SDS011;14648;49.730;8.614;2023-08-31T11:49:10;1.87;;;1.23;;
27113;SDS011;14648;49.730;8.614;2023-08-31T11:51:36;0.80;;;0.80;;
27113;SDS011;14648;49.730;8.614;2023-08-31T11:54:05;1.70;;;0.90;;
27113;SDS011;14648;49.730;8.614;2023-08-31T11:59:17;0.80;;;0.60;;
27113;SDS011;14648;49.730;8.614;2023-08-31T12:01:46;1.90;;;1.00;;
27113;SDS011;14648;49.730;8.614;2023-08-31T12:04:13;0.80;;;0.60;;
27113;SDS011;14648;49.730;8.614;2023-08-31T12:06:46;1.77;;;0.90;;
27113;SDS011;14648;49.730;8.614;2023-08-31T12:09:13;1.40;;;0.77;;
27113;SDS011;14648;49.730;8.614;2023-08-31T12:11:39;1.80;;;0.73;;
27113;SDS011;14648;49.730;8.614;2023-08-31T12:14:19;0.60;;;0.60;;
27113;SDS011;14648;49.730;8.614;2023-08-31T12:16:46;1.10;;;0.70;;
27113;SDS011;14648;49.730;8.614;2023-08-31T12:19:13;1.10;;;0.70;;
27113;SDS011;14648;49.730;8.614;2023-08-31T12:21:39;1.27;;;0.70;;
27113;SDS011;14648;49.730;8.614;2023-08-31T12:24:07;3.03;;;1.13;;
27113;SDS011;14648;49.730;8.614;2023-08-31T12:26:33;2.37;;;0.70;;
27113;SDS011;14648;49.730;8.614;2023-08-31T12:29:00;0.80;;;0.80;;
27113;SDS011;14648;49.730;8.614;2023-08-31T12:31:26;6.40;;;1.00;;
27113;SDS011;14648;49.730;8.614;2023-08-31T12:33:51;2.10;;;1.37;;
27113;SDS011;14648;49.730;8.614;2023-08-31T12:36:17;1.13;;;1.03;;
27113;SDS011;14648;49.730;8.614;2023-08-31T12:38:43;0.90;;;0.70;;
27113;SDS011;14648;49.730;8.614;2023-08-31T12:41:08;3.43;;;1.53;;
27113;SDS011;14648;49.730;8.614;2023-08-31T12:43:34;1.03;;;0.93;;
27113;SDS011;14648;49.730;8.614;2023-08-31T12:46:00;2.33;;;0.87;;
27113;SDS011;14648;49.730;8.614;2023-08-31T12:48:26;5.77;;;1.20;;
27113;SDS011;14648;49.730;8.614;2023-08-31T12:50:52;1.67;;;0.80;;
27113;SDS011;14648;49.730;8.614;2023-08-31T12:53:20;0.70;;;0.70;;
27113;SDS011;14648;49.730;8.614;2023-08-31T12:55:47;1.03;;;0.90;;
27113;SDS011;14648;49.730;8.614;2023-08-31T12:58:12;1.93;;;0.97;;
27113;SDS011;14648;49.730;8.614;2023-08-31T13:00:38;3.33;;;0.90;;
27113;SDS011;14648;49.730;8.614;2023-08-31T13:03:04;2.33;;;1.00;;
27113;SDS011;14648;49.730;8.614;2023-08-31T13:05:32;3.17;;;0.80;;
27113;SDS011;14648;49.730;8.614;2023-08-31T13:07:58;1.70;;;1.30;;
27113;SDS011;14648;49.730;8.614;2023-08-31T13:10:23;1.10;;;1.00;;
27113;SDS011;14648;49.730;8.614;2023-08-31T13:12:49;1.20;;;1.10;;
27113;SDS011;14648;49.730;8.614;2023-08-31T13:15:15;4.97;;;1.30;;
27113;SDS011;14648;49.730;8.614;2023-08-31T13:17:40;3.43;;;1.00;;
27113;SDS011;14648;49.730;8.614;2023-08-31T13:20:06;1.10;;;1.00;;
27113;SDS011;14648;49.730;8.614;2023-08-31T13:22:35;2.53;;;1.03;;
27113;SDS011;14648;49.730;8.614;2023-08-31T13:25:02;0.70;;;0.70;;
27113;SDS011;14648;49.730;8.614;2023-08-31T13:27:30;3.53;;;1.10;;
27113;SDS011;14648;49.730;8.614;2023-08-31T13:29:58;1.50;;;0.90;;
27113;SDS011;14648;49.730;8.614;2023-08-31T13:32:24;5.80;;;1.00;;
27113;SDS011;14648;49.730;8.614;2023-08-31T13:34:50;6.33;;;0.90;;
27113;SDS011;14648;49.730;8.614;2023-08-31T13:37:18;3.03;;;1.20;;
27113;SDS011;14648;49.730;8.614;2023-08-31T13:39:44;8.20;;;1.10;;
27113;SDS011;14648;49.730;8.614;2023-08-31T13:42:10;1.47;;;1.03;;
27113;SDS011;14648;49.730;8.614;2023-08-31T13:44:35;1.87;;;0.97;;
27113;SDS011;14648;49.730;8.614;2023-08-31T13:47:01;1.00;;;0.63;;
27113;SDS011;14648;49.730;8.614;2023-08-31T13:49:28;1.10;;;1.00;;
27113;SDS011;14648;49.730;8.614;2023-08-31T13:51:55;4.30;;;1.33;;
27113;SDS011;14648;49.730;8.614;2023-08-31T13:54:21;4.40;;;1.17;;
27113;SDS011;14648;49.730;8.614;2023-08-31T13:56:47;1.37;;;0.90;;
27113;SDS011;14648;49.730;8.614;2023-08-31T13:59:15;1.63;;;0.70;;
27113;SDS011;14648;49.730;8.614;2023-08-31T14:01:40;3.43;;;1.00;;
27113;SDS011;14648;49.730;8.614;2023-08-31T14:04:06;1.13;;;0.77;;
27113;SDS011;14648;49.730;8.614;2023-08-31T14:06:32;2.40;;;0.90;;
27113;SDS011;14648;49.730;8.614;2023-08-31T14:08:57;4.53;;;1.00;;
27113;SDS011;14648;49.730;8.614;2023-08-31T14:11:24;2.30;;;1.13;;
27113;SDS011;14648;49.730;8.614;2023-08-31T14:13:50;1.50;;;1.07;;
27113;SDS011;14648;49.730;8.614;2023-08-31T14:16:17;1.10;;;1.00;;
27113;SDS011;14648;49.730;8.614;2023-08-31T14:18:43;2.40;;;0.80;;
27113;SDS011;14648;49.730;8.614;2023-08-31T14:21:14;1.50;;;1.07;;
27113;SDS011;14648;49.730;8.614;2023-08-31T14:23:40;2.50;;;1.47;;
27113;SDS011;14648;49.730;8.614;2023-08-31T14:26:06;1.87;;;0.87;;
27113;SDS011;14648;49.730;8.614;2023-08-31T14:28:34;3.00;;;1.10;;
27113;SDS011;14648;49.730;8.614;2023-08-31T14:31:03;2.40;;;1.00;;
27113;SDS011;14648;49.730;8.614;2023-08-31T14:33:30;2.93;;;1.03;;
27113;SDS011;14648;49.730;8.614;2023-08-31T14:35:56;2.10;;;0.97;;
27113;SDS011;14648;49.730;8.614;2023-08-31T14:38:22;1.30;;;1.10;;
27113;SDS011;14648;49.730;8.614;2023-08-31T14:40:48;3.90;;;1.23;;
27113;SDS011;14648;49.730;8.614;2023-08-31T14:43:16;2.27;;;1.20;;
27113;SDS011;14648;49.730;8.614;2023-08-31T14:45:41;1.63;;;1.23;;
27113;SDS011;14648;49.730;8.614;2023-08-31T14:48:08;3.83;;;1.60;;
27113;SDS011;14648;49.730;8.614;2023-08-31T14:50:34;4.30;;;0.90;;
27113;SDS011;14648;49.730;8.614;2023-08-31T14:52:59;0.90;;;0.90;;
27113;SDS011;14648;49.730;8.614;2023-08-31T14:55:25;3.80;;;0.87;;
27113;SDS011;14648;49.730;8.614;2023-08-31T14:57:50;1.97;;;1.20;;
27113;SDS011;14648;49.730;8.614;2023-08-31T15:00:16;10.33;;;1.00;;
27113;SDS011;14648;49.730;8.614;2023-08-31T15:02:43;1.63;;;1.10;;
27113;SDS011;14648;49.730;8.614;2023-08-31T15:05:09;1.47;;;1.10;;
27113;SDS011;14648;49.730;8.614;2023-08-31T15:07:35;1.50;;;1.10;;